createdAt,value
2024-04-16T00:00:22.350Z,95.09
2024-04-16T00:02:52.395Z,94.91
2024-04-16T00:05:21.277Z,95.34
2024-04-16T00:07:51.349Z,94.97
2024-04-16T00:10:19.410Z,95.41
2024-04-16T00:12:52.211Z,95.12
2024-04-16T00:15:38.352Z,95.49
2024-04-16T00:18:09.244Z,95.71
2024-04-16T00:20:37.372Z,95.68
2024-04-16T00:23:08.218Z,95.16
2024-04-16T00:25:36.429Z,95.42
2024-04-16T00:28:06.331Z,95.58
2024-04-16T00:30:37.364Z,95.37
2024-04-16T00:33:08.285Z,95.67
2024-04-16T00:35:36.934Z,95.06
2024-04-16T00:38:07.122Z,95.69
2024-04-16T00:40:35.367Z,95.62
2024-04-16T00:43:19.021Z,95.62
2024-04-16T00:45:51.469Z,95.42
2024-04-16T00:48:25.472Z,95.45
2024-04-16T00:50:55.508Z,96.03
2024-04-16T00:53:29.524Z,95.63
2024-04-16T00:55:58.459Z,95.86
2024-04-16T00:58:30.345Z,95.47
2024-04-16T01:01:02.393Z,95.23
2024-04-16T01:03:32.443Z,95.37
2024-04-16T01:06:02.299Z,94.88
2024-04-16T01:08:32.480Z,94.37
2024-04-16T01:11:01.311Z,94.00
2024-04-16T01:13:31.775Z,93.78
2024-04-16T01:16:03.439Z,93.52
2024-04-16T01:18:33.938Z,94.02
2024-04-16T01:21:02.291Z,93.94
2024-04-16T01:23:35.101Z,93.83
2024-04-16T01:26:04.328Z,93.62
2024-04-16T01:28:34.870Z,93.17
2024-04-16T01:31:03.310Z,93.01
2024-04-16T01:33:33.557Z,93.25
2024-04-16T01:36:01.319Z,92.87
2024-04-16T01:38:31.113Z,93.09
2024-04-16T01:41:03.328Z,93.52
2024-04-16T01:43:33.107Z,92.76
2024-04-16T01:46:02.382Z,93.47
2024-04-16T01:48:32.348Z,92.72
2024-04-16T01:51:01.330Z,93.22
2024-04-16T01:53:31.113Z,93.04
2024-04-16T01:56:03.334Z,92.69
2024-04-16T01:58:33.155Z,93.40
2024-04-16T02:01:02.362Z,92.99
2024-04-16T02:03:32.361Z,92.62
2024-04-16T02:06:06.837Z,92.87
2024-04-16T02:08:37.341Z,92.85
2024-04-16T02:11:08.486Z,93.00
2024-04-16T02:13:39.405Z,92.89
2024-04-16T02:16:10.262Z,92.04
2024-04-16T02:18:40.448Z,92.50
2024-04-16T02:21:08.817Z,91.66
2024-04-16T02:23:39.379Z,92.07
2024-04-16T02:26:10.497Z,92.24
2024-04-16T02:28:40.389Z,91.43
2024-04-16T02:31:09.025Z,92.42
2024-04-16T02:33:40.379Z,91.54
2024-04-16T02:36:08.973Z,91.57
2024-04-16T02:38:39.383Z,91.39
2024-04-16T02:41:10.568Z,90.56
2024-04-16T02:43:40.469Z,90.47
2024-04-16T02:46:08.891Z,90.48
2024-04-16T02:48:39.407Z,90.82
2024-04-16T02:51:13.174Z,90.49
2024-04-16T02:53:43.410Z,90.00
2024-04-16T02:56:14.693Z,89.37
2024-04-16T02:58:48.411Z,88.95
2024-04-16T03:01:16.949Z,90.02
2024-04-16T03:03:48.439Z,89.35
2024-04-16T03:06:16.903Z,90.40
2024-04-16T03:08:47.406Z,90.58
2024-04-16T03:11:18.708Z,90.42
2024-04-16T03:13:49.226Z,90.23
2024-04-16T03:16:18.473Z,89.52
2024-04-16T03:18:49.266Z,89.90
2024-04-16T03:21:18.435Z,89.38
2024-04-16T03:23:48.222Z,88.09
2024-04-16T03:26:20.434Z,87.97
2024-04-16T03:28:50.217Z,88.08
2024-04-16T03:31:19.477Z,88.31
2024-04-16T03:33:49.236Z,89.34
2024-04-16T03:36:18.514Z,87.58
2024-04-16T03:38:48.207Z,87.33
2024-04-16T03:41:23.443Z,87.26
2024-04-16T03:43:54.378Z,88.38
2024-04-16T03:46:27.497Z,87.12
2024-04-16T03:48:54.593Z,87.61
2024-04-16T03:51:26.467Z,88.17
2024-04-16T03:53:53.613Z,87.95
2024-04-16T03:56:27.505Z,88.23
2024-04-16T03:59:06.265Z,87.96
2024-04-16T04:01:38.555Z,88.79
2024-04-16T04:04:05.712Z,87.80
2024-04-16T04:06:37.482Z,88.58
2024-04-16T04:09:05.622Z,87.32
2024-04-16T04:11:39.491Z,87.30
2024-04-16T04:14:06.633Z,88.31
2024-04-16T04:16:38.599Z,88.61
2024-04-16T04:19:08.564Z,88.27
2024-04-16T04:21:37.524Z,89.00
2024-04-16T04:24:15.746Z,89.38
2024-04-16T04:26:53.629Z,89.40
2024-04-16T04:29:24.522Z,89.90
2024-04-16T04:31:52.671Z,89.69
2024-04-16T04:34:23.604Z,90.37
2024-04-16T04:36:51.635Z,90.76
2024-04-16T04:39:22.515Z,89.90
2024-04-16T04:41:53.712Z,90.14
2024-04-16T04:44:24.518Z,90.53
2024-04-16T04:46:52.664Z,90.41
2024-04-16T04:49:23.778Z,90.93
2024-04-16T04:51:51.686Z,90.93
2024-04-16T04:54:22.563Z,90.20
2024-04-16T04:56:53.666Z,89.99
2024-04-16T04:59:24.517Z,90.36
2024-04-16T05:01:52.783Z,90.38
2024-04-16T05:04:23.595Z,90.04
2024-04-16T05:06:51.670Z,90.29
2024-04-16T05:09:22.556Z,91.32
2024-04-16T05:11:53.704Z,91.43
2024-04-16T05:14:25.560Z,91.28
2024-04-16T05:16:53.695Z,90.93
2024-04-16T05:19:23.619Z,91.27
2024-04-16T05:21:52.069Z,91.21
2024-04-16T05:24:22.561Z,91.01
2024-04-16T05:26:53.708Z,90.47
2024-04-16T05:29:23.557Z,90.76
2024-04-16T05:31:52.063Z,91.34
2024-04-16T05:34:22.428Z,91.63
2024-04-16T05:36:51.571Z,90.65
2024-04-16T05:39:21.364Z,90.40
2024-04-16T05:41:49.592Z,90.86
2024-04-16T05:44:22.347Z,90.89
2024-04-16T05:46:51.646Z,90.58
2024-04-16T05:49:21.946Z,90.23
2024-04-16T05:51:50.607Z,90.50
2024-04-16T05:54:20.686Z,90.23
2024-04-16T05:56:49.605Z,90.15
2024-04-16T05:59:23.104Z,88.93
2024-04-16T06:01:51.658Z,89.44
2024-04-16T06:04:21.743Z,88.78
2024-04-16T06:06:49.747Z,89.03
2024-04-16T06:09:19.653Z,88.09
2024-04-16T06:11:48.264Z,88.03
2024-04-16T06:14:18.630Z,87.83
2024-04-16T06:16:49.831Z,88.08
2024-04-16T06:19:19.469Z,88.30
2024-04-16T06:21:48.637Z,88.33
2024-04-16T06:24:18.383Z,88.31
2024-04-16T06:26:47.629Z,88.17
2024-04-16T06:29:17.649Z,87.85
2024-04-16T06:31:46.803Z,88.82
2024-04-16T06:34:19.646Z,88.31
2024-04-16T06:36:48.635Z,89.82
2024-04-16T06:39:18.418Z,90.36
2024-04-16T06:41:47.679Z,91.15
2024-04-16T06:44:17.450Z,91.59
2024-04-16T06:46:46.741Z,91.75
2024-04-16T06:49:20.442Z,92.05
2024-04-16T06:51:49.714Z,92.08
2024-04-16T06:54:19.457Z,92.40
2024-04-16T06:56:48.153Z,92.75
2024-04-16T06:59:18.716Z,91.04
2024-04-16T07:01:47.177Z,92.62
2024-04-16T07:04:19.757Z,92.70
2024-04-16T07:06:48.705Z,92.03
2024-04-16T07:09:18.663Z,92.33
2024-04-16T07:11:47.211Z,91.85
2024-04-16T07:14:17.689Z,92.68
2024-04-16T07:16:46.429Z,92.22
2024-04-16T07:19:16.765Z,92.61
2024-04-16T07:21:47.818Z,92.89
2024-04-16T07:24:17.760Z,92.19
2024-04-16T07:26:46.837Z,92.21
2024-04-16T07:29:16.713Z,92.37
2024-04-16T07:31:48.393Z,93.28
2024-04-16T07:34:20.760Z,92.57
2024-04-16T07:36:51.869Z,92.45
2024-04-16T07:39:22.707Z,93.42
2024-04-16T07:41:50.845Z,93.77
2024-04-16T07:44:21.289Z,92.75
2024-04-16T07:46:48.763Z,92.98
2024-04-16T07:49:18.557Z,92.79
2024-04-16T07:51:47.731Z,92.31
2024-04-16T07:54:20.545Z,93.03
2024-04-16T07:56:50.793Z,93.46
2024-04-16T07:59:21.704Z,93.60
2024-04-16T08:01:50.751Z,94.17
2024-04-16T08:04:20.664Z,94.63
2024-04-16T08:06:49.754Z,94.29
2024-04-16T08:09:22.543Z,94.73
2024-04-16T08:11:51.750Z,95.17
2024-04-16T08:14:23.249Z,94.72
2024-04-16T08:16:51.818Z,94.84
2024-04-16T08:19:22.445Z,95.25
2024-04-16T08:21:56.380Z,94.63
2024-04-16T08:24:31.518Z,95.02
2024-04-16T08:27:00.777Z,94.67
2024-04-16T08:29:31.177Z,94.76
2024-04-16T08:31:59.789Z,94.02
2024-04-16T08:34:30.556Z,94.71
2024-04-16T08:36:58.963Z,94.34
2024-04-16T08:39:31.802Z,93.96
2024-04-16T08:42:00.971Z,94.69
2024-04-16T08:44:32.845Z,94.35
2024-04-16T08:47:02.073Z,94.74
2024-04-16T08:49:33.875Z,94.64
2024-04-16T08:52:02.980Z,94.90
2024-04-16T08:54:36.842Z,94.48
2024-04-16T08:57:06.947Z,94.37
2024-04-16T08:59:37.804Z,93.67
2024-04-16T09:02:04.993Z,93.22
2024-04-16T09:04:40.954Z,92.49
2024-04-16T09:07:11.030Z,93.04
2024-04-16T09:09:43.823Z,92.24
2024-04-16T09:12:11.971Z,90.86
2024-04-16T09:14:42.850Z,92.14
2024-04-16T09:17:15.224Z,92.94
2024-04-16T09:19:46.875Z,93.04
2024-04-16T09:22:14.074Z,92.57
2024-04-16T09:24:46.854Z,93.88
2024-04-16T09:27:14.981Z,93.61
2024-04-16T09:29:47.100Z,94.06
2024-04-16T09:32:18.470Z,94.02
2024-04-16T09:34:48.979Z,93.29
2024-04-16T09:37:20.279Z,91.34
2024-04-16T09:39:56.884Z,92.14
2024-04-16T09:42:26.882Z,93.07
2024-04-16T09:44:57.864Z,92.34
2024-04-16T09:47:27.180Z,92.37
2024-04-16T09:50:11.279Z,92.03
2024-04-16T09:52:49.542Z,90.68
2024-04-16T09:55:23.904Z,91.09
2024-04-16T09:57:53.866Z,92.23
2024-04-16T10:00:24.895Z,91.32
2024-04-16T10:02:56.122Z,90.96
2024-04-16T10:05:26.877Z,90.36
2024-04-16T10:07:57.099Z,90.20
2024-04-16T10:10:30.930Z,90.77
2024-04-16T10:12:59.091Z,90.37
2024-04-16T10:15:29.520Z,90.97
2024-04-16T10:17:58.947Z,91.18
2024-04-16T10:20:30.907Z,91.58
2024-04-16T10:22:59.980Z,92.21
2024-04-16T10:25:38.278Z,92.24
2024-04-16T10:28:08.953Z,91.54
2024-04-16T10:30:40.680Z,90.51
2024-04-16T10:33:13.013Z,90.97
2024-04-16T10:35:42.797Z,89.87
2024-04-16T10:38:12.957Z,89.12
2024-04-16T10:40:45.766Z,88.39
2024-04-16T10:43:15.406Z,90.06
2024-04-16T10:45:47.813Z,88.85
2024-04-16T10:48:18.944Z,88.82
2024-04-16T10:50:49.538Z,88.61
2024-04-16T10:53:19.971Z,88.87
2024-04-16T10:55:54.152Z,88.53
2024-04-16T10:58:22.984Z,90.01
2024-04-16T11:00:56.486Z,89.15
2024-04-16T11:03:25.104Z,88.61
2024-04-16T11:05:55.131Z,89.11
2024-04-16T11:08:23.969Z,88.75
2024-04-16T11:10:57.111Z,87.79
2024-04-16T11:13:26.079Z,87.11
2024-04-16T11:15:56.113Z,87.45
2024-04-16T11:18:25.086Z,88.11
2024-04-16T11:20:55.920Z,86.25
2024-04-16T11:23:24.963Z,85.45
2024-04-16T11:25:57.815Z,85.58
2024-04-16T11:28:27.015Z,85.64
2024-04-16T11:30:58.352Z,85.10
2024-04-16T11:33:36.347Z,85.62
2024-04-16T11:36:09.570Z,85.17
2024-04-16T11:38:44.083Z,85.03
2024-04-16T11:41:16.055Z,84.82
2024-04-16T11:43:49.103Z,83.99
2024-04-16T11:46:18.228Z,85.45
2024-04-16T11:48:50.256Z,83.50
2024-04-16T11:51:18.188Z,82.89
2024-04-16T11:53:50.064Z,82.47
2024-04-16T11:56:20.299Z,83.13
2024-04-16T11:58:51.092Z,82.71
2024-04-16T12:01:18.635Z,82.25
2024-04-16T12:03:50.074Z,81.48
2024-04-16T12:06:17.555Z,79.94
2024-04-16T12:08:47.778Z,78.85
2024-04-16T12:11:16.061Z,79.39
2024-04-16T12:13:49.839Z,77.78
2024-04-16T12:16:18.080Z,78.45
2024-04-16T12:18:47.818Z,76.72
2024-04-16T12:21:17.061Z,76.69
2024-04-16T12:23:48.855Z,78.08
2024-04-16T12:26:21.072Z,78.28
2024-04-16T12:28:51.472Z,79.15
2024-04-16T12:31:23.107Z,78.44
2024-04-16T12:33:50.268Z,78.19
2024-04-16T12:36:21.106Z,79.57
2024-04-16T12:38:49.207Z,80.40
2024-04-16T12:41:20.079Z,79.15
2024-04-16T12:43:51.336Z,80.50
2024-04-16T12:46:21.220Z,79.65
2024-04-16T12:48:51.546Z,79.45
2024-04-16T12:51:22.103Z,76.97
2024-04-16T12:53:50.702Z,76.83
2024-04-16T12:56:20.376Z,76.90
2024-04-16T12:58:51.119Z,75.74
2024-04-16T13:01:26.363Z,79.39
2024-04-16T13:03:54.225Z,81.56
2024-04-16T13:06:23.866Z,78.36
2024-04-16T13:08:54.228Z,74.06
2024-04-16T13:11:23.979Z,73.45
2024-04-16T13:13:55.609Z,74.05
2024-04-16T13:16:26.218Z,72.86
2024-04-16T13:18:54.711Z,73.85
2024-04-16T13:21:24.926Z,70.34
2024-04-16T13:23:53.151Z,71.86
2024-04-16T13:26:23.236Z,71.23
2024-04-16T13:28:52.183Z,73.55
2024-04-16T13:31:24.965Z,73.28
2024-04-16T13:33:54.129Z,70.00
2024-04-16T13:36:24.276Z,70.58
2024-04-16T13:38:53.152Z,70.54
2024-04-16T13:41:23.774Z,69.48
2024-04-16T13:43:53.171Z,69.91
2024-04-16T13:46:25.986Z,70.73
2024-04-16T13:48:55.175Z,69.99
2024-04-16T13:51:25.288Z,69.86
2024-04-16T13:53:54.175Z,69.20
2024-04-16T13:56:24.565Z,69.97
2024-04-16T13:58:53.157Z,71.00
2024-04-16T14:01:26.224Z,70.29
2024-04-16T14:03:55.202Z,72.60
2024-04-16T14:06:25.428Z,73.18
2024-04-16T14:08:52.729Z,73.82
2024-04-16T14:11:23.280Z,74.37
2024-04-16T14:13:52.016Z,73.88
2024-04-16T14:16:22.284Z,74.17
2024-04-16T14:18:54.193Z,74.90
2024-04-16T14:21:24.004Z,74.40
2024-04-16T14:23:54.194Z,73.38
2024-04-16T14:26:25.800Z,74.12
2024-04-16T14:28:54.223Z,74.30
2024-04-16T14:31:24.415Z,74.72
2024-04-16T14:33:56.225Z,74.78
2024-04-16T14:36:26.350Z,75.60
2024-04-16T14:38:54.647Z,75.44
2024-04-16T14:41:25.221Z,75.07
2024-04-16T14:43:53.830Z,74.98
2024-04-16T14:46:24.276Z,74.18
2024-04-16T14:48:55.391Z,73.10
2024-04-16T14:51:25.254Z,73.31
2024-04-16T14:53:53.795Z,72.03
2024-04-16T14:56:24.235Z,72.69
2024-04-16T14:58:52.766Z,72.46
2024-04-16T15:01:23.401Z,69.73
2024-04-16T15:03:53.481Z,67.07
2024-04-16T15:06:26.340Z,66.42
2024-04-16T15:08:56.412Z,65.88
2024-04-16T15:11:27.314Z,67.57
2024-04-16T15:13:55.936Z,67.80
2024-04-16T15:16:27.332Z,68.06
2024-04-16T15:18:55.414Z,67.13
2024-04-16T15:21:28.338Z,65.80
2024-04-16T15:23:56.399Z,62.96
2024-04-16T15:26:26.406Z,62.99
2024-04-16T15:28:54.347Z,64.08
2024-04-16T15:31:25.100Z,64.27
2024-04-16T15:33:53.299Z,63.41
2024-04-16T15:36:23.468Z,64.06
2024-04-16T15:38:53.680Z,66.73
2024-04-16T15:41:26.406Z,68.84
2024-04-16T15:43:54.474Z,66.37
2024-04-16T15:46:24.462Z,67.80
2024-04-16T15:48:53.298Z,66.96
2024-04-16T15:51:25.978Z,67.05
2024-04-16T15:53:57.317Z,68.93
2024-04-16T15:56:27.439Z,68.91
2024-04-16T15:58:56.353Z,69.33
2024-04-16T16:01:28.760Z,67.96
2024-04-16T16:03:57.346Z,67.96
2024-04-16T16:06:27.686Z,68.60
2024-04-16T16:08:59.314Z,69.38
2024-04-16T16:11:29.484Z,69.39
2024-04-16T16:13:58.360Z,72.50
2024-04-16T16:16:28.490Z,69.76
2024-04-16T16:18:56.375Z,69.67
2024-04-16T16:21:26.124Z,69.74
2024-04-16T16:24:00.764Z,71.42
2024-04-16T16:26:32.266Z,69.98
2024-04-16T16:29:01.352Z,69.86
2024-04-16T16:31:36.215Z,69.75
2024-04-16T16:34:10.435Z,69.72
2024-04-16T16:36:41.728Z,70.35
2024-04-16T16:39:13.366Z,70.34
2024-04-16T16:41:43.743Z,70.25
2024-04-16T16:44:12.386Z,70.66
2024-04-16T16:46:42.624Z,70.52
2024-04-16T16:49:11.364Z,71.21
2024-04-16T16:51:41.566Z,71.60
2024-04-16T16:54:13.384Z,71.85
2024-04-16T16:56:43.532Z,71.74
2024-04-16T16:59:12.399Z,72.75
2024-04-16T17:01:42.564Z,71.20
2024-04-16T17:04:11.432Z,72.20
2024-04-16T17:06:42.889Z,72.26
2024-04-16T17:09:14.412Z,73.34
2024-04-16T17:11:44.565Z,73.83
2024-04-16T17:14:12.538Z,73.17
2024-04-16T17:16:43.494Z,71.69
2024-04-16T17:19:11.550Z,74.82
2024-04-16T17:21:42.400Z,73.24
2024-04-16T17:24:14.694Z,73.06
2024-04-16T17:26:46.433Z,73.36
2024-04-16T17:29:14.582Z,74.20
2024-04-16T17:31:45.524Z,75.86
2024-04-16T17:34:13.698Z,76.34
2024-04-16T17:36:44.456Z,75.64
2024-04-16T17:39:17.706Z,75.35
2024-04-16T17:41:48.466Z,76.50
2024-04-16T17:44:16.934Z,76.64
2024-04-16T17:46:48.540Z,76.99
2024-04-16T17:49:17.029Z,77.47
2024-04-16T17:51:48.484Z,77.68
2024-04-16T17:54:19.575Z,78.62
2024-04-16T17:56:50.468Z,78.57
2024-04-16T17:59:20.555Z,79.43
2024-04-16T18:01:50.569Z,79.47
2024-04-16T18:04:19.124Z,80.09
2024-04-16T18:06:49.483Z,80.88
2024-04-16T18:09:20.688Z,81.47
2024-04-16T18:11:50.540Z,81.77
2024-04-16T18:14:19.150Z,82.91
2024-04-16T18:16:49.471Z,82.54
2024-04-16T18:19:18.499Z,82.83
2024-04-16T18:21:48.278Z,83.20
2024-04-16T18:24:17.488Z,83.53
2024-04-16T18:26:52.649Z,83.38
2024-04-16T18:29:21.505Z,83.45
2024-04-16T18:31:51.326Z,83.35
2024-04-16T18:34:20.548Z,83.77
2024-04-16T18:36:50.277Z,83.69
2024-04-16T18:39:19.538Z,83.78
2024-04-16T18:41:53.812Z,84.19
2024-04-16T18:44:22.639Z,83.74
2024-04-16T18:46:53.592Z,84.18
2024-04-16T18:49:24.695Z,84.30
2024-04-16T18:51:55.528Z,84.85
2024-04-16T18:54:28.418Z,85.62
2024-04-16T18:57:04.880Z,84.93
2024-04-16T18:59:33.608Z,85.23
2024-04-16T19:02:04.459Z,85.17
2024-04-16T19:04:35.722Z,85.19
2024-04-16T19:07:06.504Z,84.17
2024-04-16T19:09:35.672Z,84.16
2024-04-16T19:12:09.528Z,84.15
2024-04-16T19:14:42.596Z,84.65
2024-04-16T19:17:14.058Z,84.31
2024-04-16T19:19:43.756Z,84.67
2024-04-16T19:22:16.001Z,89.18
2024-04-16T19:24:44.207Z,90.04
2024-04-16T19:27:17.704Z,88.79
2024-04-16T19:29:46.241Z,89.81
2024-04-16T19:32:17.747Z,88.42
2024-04-16T19:34:46.920Z,85.94
2024-04-16T19:37:18.740Z,85.48
2024-04-16T19:39:47.538Z,85.85
2024-04-16T19:42:20.704Z,87.01
2024-04-16T19:44:49.360Z,87.42
2024-04-16T19:47:19.707Z,87.26
2024-04-16T19:49:48.714Z,88.31
2024-04-16T19:52:23.092Z,88.19
2024-04-16T19:54:51.847Z,89.14
2024-04-16T19:57:24.626Z,89.40
2024-04-16T19:59:53.728Z,89.66
2024-04-16T20:02:25.653Z,90.10
2024-04-16T20:04:54.596Z,91.01
2024-04-16T20:07:24.705Z,89.84
2024-04-16T20:09:54.398Z,91.12
2024-04-16T20:12:28.688Z,92.33
2024-04-16T20:14:57.555Z,92.03
2024-04-16T20:17:27.693Z,92.02
2024-04-16T20:19:57.221Z,91.09
2024-04-16T20:22:30.862Z,90.28
2024-04-16T20:24:59.860Z,89.68
2024-04-16T20:27:33.698Z,90.47
2024-04-16T20:30:01.938Z,88.93
2024-04-16T20:32:31.971Z,88.71
2024-04-16T20:35:02.789Z,88.68
2024-04-16T20:37:35.411Z,87.84
2024-04-16T20:40:05.198Z,87.92
2024-04-16T20:42:38.743Z,88.33
2024-04-16T20:45:08.042Z,88.78
2024-04-16T20:47:38.833Z,87.05
2024-04-16T20:50:08.059Z,88.24
2024-04-16T20:52:38.576Z,86.76
2024-04-16T20:55:07.760Z,86.83
2024-04-16T20:57:40.543Z,87.31
2024-04-16T21:00:10.774Z,86.90
2024-04-16T21:02:41.638Z,85.95
2024-04-16T21:05:10.819Z,85.78
2024-04-16T21:07:41.556Z,85.05
2024-04-16T21:10:09.759Z,85.35
2024-04-16T21:12:42.774Z,84.55
2024-04-16T21:15:11.817Z,85.21
2024-04-16T21:17:42.793Z,85.31
2024-04-16T21:20:11.743Z,84.68
2024-04-16T21:22:42.112Z,84.09
2024-04-16T21:25:10.727Z,83.76
2024-04-16T21:27:44.644Z,84.53
2024-04-16T21:30:13.771Z,86.64
2024-04-16T21:32:44.058Z,85.52
2024-04-16T21:35:11.918Z,85.27
2024-04-16T21:37:41.802Z,86.12
2024-04-16T21:40:10.436Z,85.90
2024-04-16T21:42:41.773Z,86.79
2024-04-16T21:45:15.758Z,87.22
2024-04-16T21:47:45.636Z,87.03
2024-04-16T21:50:15.837Z,87.49
2024-04-16T21:52:45.647Z,86.80
2024-04-16T21:55:14.874Z,86.86
2024-04-16T21:57:44.581Z,87.17
2024-04-16T22:00:16.802Z,87.30
2024-04-16T22:02:46.660Z,87.58
2024-04-16T22:05:15.778Z,87.90
2024-04-16T22:07:49.098Z,87.63
2024-04-16T22:10:18.152Z,87.88
2024-04-16T22:12:48.818Z,87.94
2024-04-16T22:15:20.073Z,88.67
2024-04-16T22:17:50.894Z,88.58
2024-04-16T22:20:21.170Z,88.88
2024-04-16T22:22:51.843Z,88.88
2024-04-16T22:25:23.812Z,89.03
2024-04-16T22:27:53.922Z,89.03
2024-04-16T22:30:25.008Z,89.12
2024-04-16T22:32:55.937Z,88.87
2024-04-16T22:35:24.345Z,89.07
2024-04-16T22:37:55.912Z,89.87
2024-04-16T22:40:24.424Z,89.95
2024-04-16T22:42:54.858Z,89.95
2024-04-16T22:45:29.889Z,89.97
2024-04-16T22:47:58.973Z,90.61
2024-04-16T22:50:32.291Z,90.29
2024-04-16T22:53:01.854Z,90.86
2024-04-16T22:55:33.080Z,90.24
2024-04-16T22:58:02.134Z,90.35
2024-04-16T23:00:36.179Z,90.29
2024-04-16T23:03:04.954Z,90.26
2024-04-16T23:05:36.397Z,90.29
2024-04-16T23:08:04.889Z,90.04
2024-04-16T23:10:39.031Z,90.09
2024-04-16T23:13:07.959Z,89.82
2024-04-16T23:15:41.779Z,90.06
2024-04-16T23:18:10.945Z,89.46
2024-04-16T23:20:42.257Z,90.24
2024-04-16T23:23:10.897Z,89.58
2024-04-16T23:25:45.122Z,89.70
2024-04-16T23:28:13.893Z,89.14
2024-04-16T23:30:46.989Z,88.85
2024-04-16T23:33:16.103Z,88.75
2024-04-16T23:35:47.277Z,89.29
2024-04-16T23:38:15.047Z,88.95
2024-04-16T23:40:49.297Z,89.54
2024-04-16T23:43:17.113Z,89.19
2024-04-16T23:45:49.884Z,89.53
2024-04-16T23:48:18.568Z,89.94
2024-04-16T23:50:48.443Z,90.11
2024-04-16T23:53:23.936Z,90.35
2024-04-16T23:55:53.679Z,90.64
2024-04-16T23:58:22.124Z,90.82
